Time;durP1;ratioP1;P1;durP2;ratioP2;P2;SDS_P1;SDS_P2;PMS_P1;PMS_P2;Temp;Humidity;BMP_temperature;BMP_pressure;BME280_temperature;BME280_humidity;BME280_pressure;Samples;Min_cycle;Max_cycle;Signal;HPM_P1;HPM_P2
2022/10/20 00:00:09;;;;;;;10.32;6.15;;;10.80;89.60;;;;;;5005124;28;20026;-77
2022/10/20 00:02:35;;;;;;;15.27;6.75;;;10.80;89.70;;;;;;5009535;28;20061;-78
2022/10/20 00:05:02;;;;;;;13.85;6.22;;;10.80;89.80;;;;;;5009054;28;20200;-77
2022/10/20 00:07:28;;;;;;;10.30;6.35;;;10.80;89.90;;;;;;5009100;28;20045;-77
2022/10/20 00:09:54;;;;;;;9.77;6.25;;;10.70;89.70;;;;;;4993272;28;20030;-77
2022/10/20 00:12:19;;;;;;;10.18;5.65;;;10.70;89.70;;;;;;4985682;28;20396;-77
2022/10/20 00:14:45;;;;;;;8.73;5.45;;;10.70;90.00;;;;;;5007536;28;20071;-77
2022/10/20 00:17:11;;;;;;;11.18;6.53;;;10.70;90.00;;;;;;5009577;28;20743;-78
2022/10/20 00:19:36;;;;;;;9.25;5.85;;;10.70;90.00;;;;;;5009452;28;20160;-78
2022/10/20 00:22:02;;;;;;;11.50;6.45;;;10.70;90.00;;;;;;5009649;28;20025;-78
2022/10/20 00:24:28;;;;;;;9.50;5.25;;;10.70;90.00;;;;;;4989815;28;20559;-77
2022/10/20 00:26:53;;;;;;;10.30;5.88;;;10.70;90.20;;;;;;5001698;28;20030;-77
2022/10/20 00:29:19;;;;;;;12.02;6.32;;;10.70;90.10;;;;;;4992092;28;20050;-77
2022/10/20 00:31:45;;;;;;;11.90;7.20;;;10.70;90.20;;;;;;5005544;28;20030;-77
2022/10/20 00:34:10;;;;;;;13.13;7.22;;;10.60;90.20;;;;;;4981166;28;20027;-77
2022/10/20 00:36:38;;;;;;;13.93;8.20;;;10.60;90.20;;;;;;5000656;28;20034;-79
2022/10/20 00:39:05;;;;;;;15.35;7.97;;;10.60;90.30;;;;;;5010080;28;20022;-78
2022/10/20 00:41:32;;;;;;;10.27;7.88;;;10.60;90.30;;;;;;5009469;28;20022;-78
2022/10/20 00:44:00;;;;;;;10.65;6.65;;;10.60;90.20;;;;;;4995472;28;20117;-78
2022/10/20 00:46:38;;;;;;;11.15;6.47;;;10.60;90.10;;;;;;4985669;28;20026;-78
2022/10/20 00:49:20;;;;;;;10.93;6.00;;;10.50;90.10;;;;;;5006808;28;20026;-77
2022/10/20 00:51:46;;;;;;;11.15;7.22;;;10.50;90.30;;;;;;4992953;28;20030;-78
2022/10/20 00:54:17;;;;;;;11.70;6.70;;;10.50;90.30;;;;;;4994954;28;20105;-79
2022/10/20 00:56:44;;;;;;;14.65;8.93;;;10.50;90.30;;;;;;4991343;28;20069;-78
2022/10/20 00:59:13;;;;;;;14.70;7.70;;;10.40;90.30;;;;;;4995585;28;20029;-78
2022/10/20 01:01:40;;;;;;;9.65;6.68;;;10.40;90.40;;;;;;5010270;28;20022;-78
2022/10/20 01:04:06;;;;;;;11.02;7.00;;;10.50;90.40;;;;;;5013016;28;20030;-77
2022/10/20 01:06:31;;;;;;;10.20;6.53;;;10.50;90.50;;;;;;5002300;28;20034;-77
2022/10/20 01:08:58;;;;;;;13.25;8.30;;;10.50;90.40;;;;;;5012719;28;20049;-78
2022/10/20 01:11:29;;;;;;;14.35;8.82;;;10.50;90.40;;;;;;4994174;28;20204;-78
2022/10/20 01:14:14;;;;;;;9.80;6.60;;;10.50;90.50;;;;;;5008377;28;20084;-78
2022/10/20 01:16:45;;;;;;;11.63;6.47;;;10.40;90.60;;;;;;5012015;28;20041;-77
2022/10/20 01:19:38;;;;;;;12.45;7.30;;;10.40;90.60;;;;;;5012322;28;20046;-78
2022/10/20 01:22:15;;;;;;;12.77;8.18;;;10.40;90.50;;;;;;5009833;28;20104;-78
2022/10/20 01:25:07;;;;;;;10.32;7.70;;;10.50;90.50;;;;;;4978479;28;20172;-77
2022/10/20 01:27:42;;;;;;;15.05;7.38;;;10.40;90.70;;;;;;5011764;28;20029;-78
2022/10/20 01:30:13;;;;;;;15.05;8.02;;;10.40;90.80;;;;;;5011634;28;20022;-78
2022/10/20 01:32:54;;;;;;;14.43;8.18;;;10.50;90.60;;;;;;5012186;28;20030;-79
2022/10/20 01:35:32;;;;;;;10.75;7.35;;;10.40;90.80;;;;;;5012058;28;20088;-78
2022/10/20 01:38:19;;;;;;;11.98;6.78;;;10.40;90.80;;;;;;5010323;28;20046;-77
2022/10/20 01:41:09;;;;;;;14.57;8.40;;;10.30;90.90;;;;;;5012766;28;20112;-77
2022/10/20 01:43:37;;;;;;;11.60;8.27;;;10.30;90.90;;;;;;5007416;28;20031;-77
2022/10/20 01:46:04;;;;;;;11.70;6.70;;;10.30;90.90;;;;;;5010688;28;20122;-77
2022/10/20 01:48:32;;;;;;;8.93;5.93;;;10.30;90.90;;;;;;5015786;28;20172;-79
2022/10/20 01:51:00;;;;;;;13.43;8.80;;;10.30;90.80;;;;;;5017738;28;20034;-78
2022/10/20 01:53:26;;;;;;;12.95;7.80;;;10.30;90.80;;;;;;4994046;28;20076;-79
2022/10/20 01:55:55;;;;;;;11.02;6.85;;;10.30;90.90;;;;;;5018793;28;20018;-78
2022/10/20 01:58:50;;;;;;;11.52;8.90;;;10.30;91.00;;;;;;5015680;28;20041;-78
2022/10/20 02:01:50;;;;;;;10.93;6.78;;;10.20;91.00;;;;;;5013779;28;20021;-78
2022/10/20 02:04:20;;;;;;;10.18;5.88;;;10.30;91.10;;;;;;5009891;28;20034;-78
2022/10/20 02:07:07;;;;;;;10.50;6.90;;;10.30;91.00;;;;;;4993757;28;20042;-78
2022/10/20 02:09:43;;;;;;;13.60;8.07;;;10.30;91.10;;;;;;4983135;28;20030;-77
2022/10/20 02:12:20;;;;;;;12.88;7.00;;;10.30;91.10;;;;;;5012148;28;20030;-78
2022/10/20 02:14:46;;;;;;;13.27;7.68;;;10.30;91.20;;;;;;5005224;28;20018;-78
2022/10/20 02:17:15;;;;;;;10.00;5.97;;;10.20;91.10;;;;;;4994298;28;20633;-78
2022/10/20 02:19:43;;;;;;;10.82;6.68;;;10.30;91.10;;;;;;5011715;28;20121;-77
2022/10/20 02:22:12;;;;;;;11.52;7.13;;;10.30;91.10;;;;;;5011898;28;20034;-78
2022/10/20 02:24:39;;;;;;;12.88;7.57;;;10.30;91.00;;;;;;5009883;28;20539;-77
2022/10/20 02:27:30;;;;;;;9.00;7.10;;;10.20;91.00;;;;;;4980528;28;20030;-79
2022/10/20 02:30:09;;;;;;;13.35;7.07;;;10.30;91.10;;;;;;5008434;28;20041;-78
2022/10/20 02:32:37;;;;;;;12.25;6.75;;;10.20;91.20;;;;;;5011049;28;20034;-78
2022/10/20 02:35:06;;;;;;;10.25;7.45;;;10.20;91.20;;;;;;5005269;28;20026;-78
2022/10/20 02:37:32;;;;;;;12.98;7.68;;;10.20;91.10;;;;;;5003612;28;20046;-78
2022/10/20 02:39:58;;;;;;;13.63;7.72;;;10.20;91.20;;;;;;4990292;28;20037;-79
2022/10/20 02:42:23;;;;;;;11.05;7.78;;;10.20;91.30;;;;;;5005260;28;20036;-78
2022/10/20 02:44:50;;;;;;;11.55;8.25;;;10.20;91.30;;;;;;5011530;28;20084;-78
2022/10/20 02:47:16;;;;;;;10.25;5.97;;;10.20;91.20;;;;;;5012256;28;20030;-78
2022/10/20 02:49:42;;;;;;;14.43;7.70;;;10.20;91.30;;;;;;5005553;28;20431;-78
2022/10/20 02:52:08;;;;;;;12.05;7.68;;;10.20;91.30;;;;;;5010319;28;20034;-78
2022/10/20 02:54:33;;;;;;;13.85;7.32;;;10.20;91.30;;;;;;5012423;28;20053;-78
2022/10/20 02:56:59;;;;;;;12.68;7.13;;;10.20;91.20;;;;;;5011716;28;20135;-79
2022/10/20 02:59:24;;;;;;;10.77;7.28;;;10.20;91.10;;;;;;4993484;28;20022;-78
2022/10/20 03:01:51;;;;;;;13.90;8.50;;;10.20;91.00;;;;;;5011482;28;20399;-79
2022/10/20 03:04:17;;;;;;;11.45;6.95;;;10.20;91.00;;;;;;4994139;28;20087;-77
2022/10/20 03:06:42;;;;;;;10.38;7.50;;;10.20;90.90;;;;;;5012257;28;20575;-78
2022/10/20 03:09:08;;;;;;;13.32;7.32;;;10.30;90.90;;;;;;5010873;28;20022;-78
2022/10/20 03:11:34;;;;;;;12.82;7.55;;;10.30;90.90;;;;;;5006095;28;20027;-79
2022/10/20 03:14:00;;;;;;;13.38;8.35;;;10.30;90.90;;;;;;5004397;28;20075;-77
2022/10/20 03:16:26;;;;;;;11.77;5.47;;;10.30;90.90;;;;;;5006111;28;20030;-79
2022/10/20 03:18:52;;;;;;;10.23;7.25;;;10.30;91.00;;;;;;5011240;28;20050;-78
2022/10/20 03:21:18;;;;;;;13.02;8.65;;;10.20;91.00;;;;;;5010016;28;20041;-78
2022/10/20 03:23:45;;;;;;;12.98;8.40;;;10.20;90.90;;;;;;5010674;28;20026;-78
2022/10/20 03:26:11;;;;;;;12.48;8.00;;;10.30;91.00;;;;;;5009780;28;20506;-78
2022/10/20 03:28:38;;;;;;;12.02;7.50;;;10.30;91.10;;;;;;5009723;28;20030;-77
2022/10/20 03:31:04;;;;;;;13.82;8.05;;;10.30;91.00;;;;;;5003800;28;20496;-78
2022/10/20 03:33:30;;;;;;;11.35;6.05;;;10.20;91.00;;;;;;5004759;28;20029;-78
2022/10/20 03:35:55;;;;;;;9.65;6.95;;;10.20;91.10;;;;;;4991643;28;20028;-78
2022/10/20 03:38:22;;;;;;;10.25;5.88;;;10.20;91.10;;;;;;5009345;28;20029;-79
2022/10/20 03:40:48;;;;;;;14.25;7.82;;;10.20;91.20;;;;;;5009092;28;20033;-78
2022/10/20 03:43:17;;;;;;;11.43;7.78;;;10.20;91.30;;;;;;5003840;28;20080;-78
2022/10/20 03:45:43;;;;;;;10.68;6.53;;;10.20;91.50;;;;;;5010438;28;20021;-79
2022/10/20 03:48:10;;;;;;;10.75;7.43;;;10.20;91.50;;;;;;4992799;28;20496;-78
2022/10/20 03:50:40;;;;;;;12.23;7.78;;;10.20;91.60;;;;;;4993076;28;20506;-78
2022/10/20 03:53:06;;;;;;;13.18;7.80;;;10.20;91.60;;;;;;5007891;28;20026;-78
2022/10/20 03:55:31;;;;;;;16.10;7.32;;;10.10;91.50;;;;;;5009443;28;20073;-78
2022/10/20 03:57:57;;;;;;;10.10;6.70;;;10.10;91.40;;;;;;5009059;28;20041;-78
2022/10/20 04:00:30;;;;;;;11.15;7.72;;;10.10;91.50;;;;;;5008990;28;20033;-77
2022/10/20 04:02:55;;;;;;;11.95;7.53;;;10.00;91.50;;;;;;4992029;28;20105;-78
2022/10/20 04:05:24;;;;;;;13.05;7.75;;;10.10;91.60;;;;;;4993543;28;20116;-78
2022/10/20 04:07:49;;;;;;;14.35;8.02;;;10.00;91.50;;;;;;4990251;28;20069;-78
2022/10/20 04:10:16;;;;;;;11.68;7.28;;;10.10;91.60;;;;;;4984574;28;20062;-79
2022/10/20 04:12:42;;;;;;;12.10;8.10;;;10.10;91.90;;;;;;5009539;28;20029;-77
2022/10/20 04:15:08;;;;;;;12.65;6.85;;;10.00;91.80;;;;;;5010286;28;20053;-78
2022/10/20 04:17:35;;;;;;;14.43;6.60;;;10.10;91.80;;;;;;5009923;28;20030;-77
2022/10/20 04:20:03;;;;;;;9.73;7.43;;;10.00;91.90;;;;;;5009587;28;20054;-79
2022/10/20 04:22:29;;;;;;;14.07;6.65;;;10.10;91.90;;;;;;5010637;28;20030;-79
2022/10/20 04:24:56;;;;;;;16.25;8.32;;;10.10;91.90;;;;;;4990242;28;20041;-77
2022/10/20 04:27:21;;;;;;;15.05;8.50;;;10.10;91.80;;;;;;5007420;28;20037;-77
2022/10/20 04:29:47;;;;;;;12.77;7.03;;;10.10;91.60;;;;;;5011182;28;20361;-77
2022/10/20 04:32:16;;;;;;;9.68;6.63;;;10.10;91.70;;;;;;4993105;28;20128;-76
2022/10/20 04:34:41;;;;;;;13.82;6.75;;;10.10;91.80;;;;;;5008734;28;20484;-77
2022/10/20 04:37:07;;;;;;;13.95;7.82;;;10.10;91.80;;;;;;5009565;28;20041;-77
2022/10/20 04:39:32;;;;;;;9.07;6.55;;;10.10;91.90;;;;;;5010520;28;20030;-78
2022/10/20 04:41:59;;;;;;;13.52;7.85;;;10.10;92.00;;;;;;4992890;28;20037;-76
2022/10/20 04:44:25;;;;;;;10.52;6.78;;;10.00;91.90;;;;;;5009668;28;20024;-76
2022/10/20 04:46:56;;;;;;;12.32;8.35;;;10.00;92.00;;;;;;5009301;28;20026;-77
2022/10/20 04:49:22;;;;;;;14.38;7.63;;;10.00;92.00;;;;;;5012167;28;20026;-78
2022/10/20 04:51:48;;;;;;;10.85;6.10;;;10.10;92.10;;;;;;4993281;28;20594;-78
2022/10/20 04:54:14;;;;;;;13.70;8.13;;;10.00;92.10;;;;;;4994939;28;20411;-76
2022/10/20 04:56:40;;;;;;;11.40;7.97;;;10.10;92.00;;;;;;4984143;28;20029;-78
2022/10/20 04:59:05;;;;;;;12.18;7.25;;;10.10;92.00;;;;;;4995776;28;20018;-78
2022/10/20 05:01:31;;;;;;;12.02;7.68;;;10.10;92.10;;;;;;5010824;28;20030;-78
2022/10/20 05:03:57;;;;;;;13.32;7.82;;;10.10;92.10;;;;;;4991478;28;20029;-79
2022/10/20 05:06:28;;;;;;;11.80;7.75;;;10.10;92.20;;;;;;5009338;28;20520;-78
2022/10/20 05:08:57;;;;;;;12.80;8.02;;;10.10;92.10;;;;;;4992423;28;20503;-80
2022/10/20 05:11:24;;;;;;;14.80;9.00;;;10.10;92.00;;;;;;5001915;28;20022;-80
2022/10/20 05:13:50;;;;;;;13.80;7.28;;;10.20;92.00;;;;;;5003373;28;20026;-80
2022/10/20 05:16:17;;;;;;;11.25;9.07;;;10.20;92.10;;;;;;5002511;28;20088;-79
2022/10/20 05:18:43;;;;;;;11.38;8.38;;;10.20;92.10;;;;;;5010620;28;20054;-78
2022/10/20 05:21:17;;;;;;;13.25;9.48;;;10.20;92.00;;;;;;5008484;28;20064;-79
2022/10/20 05:23:44;;;;;;;18.55;10.00;;;10.20;92.00;;;;;;4988314;28;20025;-78
2022/10/20 05:26:12;;;;;;;14.57;8.45;;;10.20;92.00;;;;;;5000836;28;20133;-78
2022/10/20 05:28:41;;;;;;;17.60;10.18;;;10.20;91.90;;;;;;5009457;28;20038;-79
2022/10/20 05:31:07;;;;;;;12.68;8.48;;;10.20;91.90;;;;;;4986064;28;20057;-78
2022/10/20 05:33:33;;;;;;;12.38;6.63;;;10.20;91.90;;;;;;5008581;28;20054;-78
2022/10/20 05:35:59;;;;;;;14.40;10.02;;;10.30;91.90;;;;;;4990438;28;20679;-78
2022/10/20 05:38:25;;;;;;;14.98;10.05;;;10.40;91.90;;;;;;5009732;28;20503;-79
2022/10/20 05:40:50;;;;;;;15.27;9.75;;;10.40;91.90;;;;;;5012792;28;20073;-79
2022/10/20 05:43:16;;;;;;;9.38;7.03;;;10.40;91.90;;;;;;4995242;28;20040;-78
2022/10/20 05:45:41;;;;;;;19.77;11.35;;;10.40;91.90;;;;;;4985355;28;20034;-79
2022/10/20 05:48:07;;;;;;;12.95;7.72;;;10.50;92.00;;;;;;4993534;28;20029;-79
2022/10/20 05:50:33;;;;;;;13.73;9.98;;;10.50;91.90;;;;;;5011657;28;20030;-76
2022/10/20 05:52:58;;;;;;;10.65;6.90;;;10.50;91.90;;;;;;5011619;28;20029;-77
2022/10/20 05:55:24;;;;;;;13.00;10.52;;;10.50;91.90;;;;;;4993036;28;20060;-77
2022/10/20 05:57:50;;;;;;;12.52;7.82;;;10.50;91.80;;;;;;4991965;28;20374;-78
2022/10/20 06:00:22;;;;;;;10.93;7.97;;;10.50;91.80;;;;;;5000754;28;20810;-77
2022/10/20 06:02:49;;;;;;;14.57;10.60;;;10.60;91.80;;;;;;5012191;28;20025;-77
2022/10/20 06:05:14;;;;;;;13.07;9.15;;;10.60;91.80;;;;;;5010210;28;20041;-78
2022/10/20 06:07:40;;;;;;;12.88;8.65;;;10.50;91.80;;;;;;5010003;28;20026;-78
2022/10/20 06:10:05;;;;;;;14.63;9.38;;;10.60;91.70;;;;;;5007769;28;20082;-78
2022/10/20 06:12:31;;;;;;;14.75;9.15;;;10.60;91.70;;;;;;5010012;28;20018;-79
2022/10/20 06:14:57;;;;;;;15.95;11.30;;;10.60;91.60;;;;;;5011703;28;20026;-78
2022/10/20 06:17:28;;;;;;;13.73;9.15;;;10.60;91.70;;;;;;4998949;28;20026;-78
2022/10/20 06:19:54;;;;;;;14.02;10.43;;;10.60;91.70;;;;;;5005979;28;20045;-78
2022/10/20 06:22:20;;;;;;;16.67;11.52;;;10.60;91.70;;;;;;5011192;28;20076;-78
2022/10/20 06:24:46;;;;;;;20.63;11.95;;;10.60;91.80;;;;;;5011425;28;20018;-78
2022/10/20 06:27:11;;;;;;;14.25;9.98;;;10.60;91.80;;;;;;5007716;28;20760;-79
2022/10/20 06:29:37;;;;;;;14.13;8.35;;;10.60;91.70;;;;;;5008412;28;20232;-79
2022/10/20 06:32:03;;;;;;;16.80;12.50;;;10.70;91.80;;;;;;5009754;28;20022;-77
2022/10/20 06:34:29;;;;;;;15.80;10.25;;;10.70;91.70;;;;;;5010209;28;20531;-77
2022/10/20 06:36:54;;;;;;;14.27;9.45;;;10.70;91.70;;;;;;5011080;28;20129;-78
2022/10/20 06:39:23;;;;;;;14.52;8.68;;;10.80;91.70;;;;;;4993161;28;20745;-78
2022/10/20 06:41:50;;;;;;;14.30;10.43;;;10.80;91.60;;;;;;5012310;28;20026;-78
2022/10/20 06:44:17;;;;;;;21.48;11.73;;;10.90;91.60;;;;;;5010539;28;20022;-78
2022/10/20 06:46:43;;;;;;;19.50;12.20;;;10.90;91.50;;;;;;5008366;28;20049;-78
2022/10/20 06:49:12;;;;;;;17.40;9.10;;;10.90;91.50;;;;;;5008973;28;20499;-78
2022/10/20 06:51:38;;;;;;;9.95;5.63;;;10.90;91.50;;;;;;4989578;28;20109;-77
2022/10/20 06:54:04;;;;;;;8.75;4.75;;;11.00;91.50;;;;;;4991059;28;20100;-75
2022/10/20 06:56:33;;;;;;;12.82;7.93;;;11.20;91.50;;;;;;5008840;28;20026;-81
2022/10/20 06:59:00;;;;;;;17.33;11.02;;;11.20;91.30;;;;;;4990307;28;20480;-80
2022/10/20 07:01:27;;;;;;;15.70;10.63;;;11.10;91.30;;;;;;5009859;28;20030;-77
2022/10/20 07:03:55;;;;;;;15.77;11.07;;;11.10;91.20;;;;;;5002573;28;20022;-77
2022/10/20 07:06:47;;;;;;;18.50;13.27;;;11.10;91.20;;;;;;5011003;28;20022;-78
2022/10/20 07:09:17;;;;;;;19.55;13.35;;;11.10;91.30;;;;;;4985819;28;20018;-79
2022/10/20 07:11:43;;;;;;;18.77;13.25;;;11.10;91.30;;;;;;4994577;28;20022;-75
2022/10/20 07:14:11;;;;;;;15.88;11.77;;;11.10;91.40;;;;;;5006673;28;20477;-78
2022/10/20 07:16:37;;;;;;;18.27;12.38;;;11.10;91.30;;;;;;5010322;28;20034;-76
2022/10/20 07:19:03;;;;;;;16.73;13.13;;;11.10;91.30;;;;;;4992932;28;20077;-78
2022/10/20 07:21:30;;;;;;;16.35;11.93;;;11.20;91.30;;;;;;4992498;28;20160;-77
2022/10/20 07:23:56;;;;;;;18.13;12.38;;;11.20;91.30;;;;;;4992411;28;20030;-77
2022/10/20 07:26:27;;;;;;;12.95;7.88;;;11.30;91.30;;;;;;5010922;28;20030;-78
2022/10/20 07:28:56;;;;;;;18.30;13.55;;;11.40;91.20;;;;;;4993550;28;20480;-78
2022/10/20 07:31:27;;;;;;;13.07;7.68;;;11.40;91.00;;;;;;4979430;28;20108;-79
2022/10/20 07:33:54;;;;;;;14.43;10.77;;;11.40;90.90;;;;;;5010023;28;20022;-78
2022/10/20 07:36:31;;;;;;;18.15;11.38;;;11.40;90.90;;;;;;4988075;28;20026;-77
2022/10/20 07:38:59;;;;;;;17.65;12.35;;;11.40;90.90;;;;;;4980094;28;20366;-79
2022/10/20 07:41:25;;;;;;;17.75;12.52;;;11.40;91.00;;;;;;5000921;28;20452;-80
2022/10/20 07:43:55;;;;;;;16.35;10.32;;;11.40;91.10;;;;;;5001889;28;20040;-79
2022/10/20 07:46:22;;;;;;;18.05;12.57;;;11.40;91.00;;;;;;5011339;28;20022;-79
2022/10/20 07:48:48;;;;;;;14.35;9.00;;;11.50;91.00;;;;;;5018116;28;20089;-79
2022/10/20 07:51:20;;;;;;;17.92;12.73;;;11.50;90.90;;;;;;5014795;28;20030;-81
2022/10/20 07:53:46;;;;;;;15.73;11.63;;;11.60;90.80;;;;;;5013477;28;20084;-80
2022/10/20 07:56:12;;;;;;;15.45;12.70;;;11.70;90.70;;;;;;5001480;28;20022;-80
2022/10/20 07:58:39;;;;;;;18.05;12.02;;;11.70;90.80;;;;;;5016152;28;20042;-80
2022/10/20 08:01:05;;;;;;;15.27;11.32;;;11.70;90.80;;;;;;5016223;28;20018;-80
2022/10/20 08:03:31;;;;;;;14.15;9.85;;;11.80;90.60;;;;;;5008151;28;20507;-77
2022/10/20 08:05:57;;;;;;;20.08;10.90;;;11.80;90.40;;;;;;5005926;28;20464;-79
2022/10/20 08:08:22;;;;;;;18.20;12.20;;;11.90;90.40;;;;;;5004415;28;20018;-80
2022/10/20 08:10:48;;;;;;;13.70;9.80;;;11.80;90.50;;;;;;5006954;28;20030;-82
2022/10/20 08:13:15;;;;;;;18.13;12.82;;;11.90;90.50;;;;;;5009754;28;20050;-76
2022/10/20 08:15:41;;;;;;;12.18;7.88;;;11.90;90.50;;;;;;5008987;28;20480;-77
2022/10/20 08:18:07;;;;;;;12.20;6.25;;;12.00;90.30;;;;;;4991352;28;20026;-76
2022/10/20 08:20:32;;;;;;;10.23;4.60;;;12.10;90.00;;;;;;5009131;28;20113;-78
2022/10/20 08:22:59;;;;;;;15.35;10.43;;;12.10;89.90;;;;;;5006431;28;20140;-79
2022/10/20 08:25:35;;;;;;;15.13;10.27;;;12.20;89.70;;;;;;4991093;28;20104;-80
2022/10/20 08:28:01;;;;;;;17.73;12.85;;;12.20;90.00;;;;;;5002503;28;20034;-79
2022/10/20 08:30:26;;;;;;;15.48;10.55;;;12.20;90.00;;;;;;5008720;28;20028;-82
2022/10/20 08:32:52;;;;;;;19.45;11.45;;;12.20;90.10;;;;;;5005979;28;20050;-82
2022/10/20 08:35:20;;;;;;;16.65;10.55;;;12.30;90.20;;;;;;5003348;28;20128;-79
2022/10/20 08:37:45;;;;;;;22.23;12.05;;;12.30;90.00;;;;;;4995675;28;20065;-79
2022/10/20 08:40:17;;;;;;;16.83;11.68;;;12.40;89.80;;;;;;5001143;28;20110;-79
2022/10/20 08:42:44;;;;;;;22.85;13.32;;;12.50;89.70;;;;;;5007394;28;20029;-81
2022/10/20 08:45:15;;;;;;;16.05;11.93;;;12.50;89.90;;;;;;4989466;28;20480;-81
2022/10/20 08:47:43;;;;;;;13.52;10.52;;;12.70;89.50;;;;;;5007803;28;20040;-79
2022/10/20 08:50:12;;;;;;;20.52;12.90;;;12.80;89.40;;;;;;5008973;28;20504;-80
2022/10/20 08:52:39;;;;;;;18.20;11.43;;;12.80;89.40;;;;;;4995928;28;20034;-79
2022/10/20 08:55:06;;;;;;;18.60;12.18;;;13.00;89.30;;;;;;5008316;28;20057;-80
2022/10/20 08:57:34;;;;;;;18.02;12.95;;;13.00;88.70;;;;;;4998336;28;20022;-79
2022/10/20 09:00:19;;;;;;;15.32;12.23;;;13.20;88.50;;;;;;5008407;28;20064;-79
2022/10/20 09:02:47;;;;;;;17.02;11.10;;;13.20;88.30;;;;;;5007024;28;20026;-78
2022/10/20 09:05:15;;;;;;;17.45;12.07;;;13.30;87.80;;;;;;5007009;28;20153;-79
2022/10/20 09:07:41;;;;;;;19.08;11.95;;;13.40;88.80;;;;;;5002852;28;20176;-79
2022/10/20 09:10:19;;;;;;;12.98;9.23;;;13.40;88.10;;;;;;4988359;28;20634;-78
2022/10/20 09:12:47;;;;;;;15.05;10.10;;;13.50;88.00;;;;;;4994115;28;20145;-76
2022/10/20 09:15:15;;;;;;;16.85;11.48;;;13.60;87.40;;;;;;5011022;28;20054;-77
2022/10/20 09:17:45;;;;;;;14.70;11.20;;;13.60;87.30;;;;;;5011061;28;20045;-77
2022/10/20 09:20:20;;;;;;;17.88;11.93;;;13.70;87.10;;;;;;5011396;28;20066;-76
2022/10/20 09:22:46;;;;;;;20.25;13.52;;;13.80;86.30;;;;;;5011045;28;20109;-77
2022/10/20 09:25:16;;;;;;;17.73;13.10;;;13.80;86.50;;;;;;5010710;28;20124;-75
2022/10/20 09:27:44;;;;;;;17.73;11.70;;;13.80;87.50;;;;;;5009866;28;20030;-75
2022/10/20 09:30:22;;;;;;;12.85;9.27;;;13.90;87.00;;;;;;5010343;28;20029;-76
2022/10/20 09:32:48;;;;;;;21.52;13.02;;;13.90;86.70;;;;;;5009939;28;20777;-75
2022/10/20 09:35:18;;;;;;;17.77;12.50;;;13.90;86.90;;;;;;5009209;28;20030;-75
2022/10/20 09:37:55;;;;;;;15.57;10.25;;;13.80;87.20;;;;;;5005610;28;20029;-78
2022/10/20 09:40:23;;;;;;;16.73;12.57;;;13.90;86.60;;;;;;5004690;28;20033;-79
2022/10/20 09:42:54;;;;;;;20.05;13.27;;;13.90;87.50;;;;;;4993024;28;20099;-77
2022/10/20 09:45:52;;;;;;;17.02;11.90;;;14.00;87.60;;;;;;4989960;28;20112;-76
2022/10/20 09:48:24;;;;;;;21.65;13.60;;;14.00;87.80;;;;;;5007944;28;20021;-80
2022/10/20 09:50:57;;;;;;;18.40;13.23;;;14.00;87.60;;;;;;5011441;28;20037;-85
2022/10/20 09:53:31;;;;;;;13.57;9.40;;;14.10;88.50;;;;;;5013056;28;20131;-81
2022/10/20 09:56:01;;;;;;;15.93;11.70;;;14.20;87.90;;;;;;5009765;28;20026;-80
2022/10/20 09:58:31;;;;;;;13.15;10.60;;;14.20;88.60;;;;;;5009803;28;20033;-82
2022/10/20 10:01:04;;;;;;;16.73;11.80;;;14.20;88.30;;;;;;5008962;28;20057;-80
2022/10/20 10:03:43;;;;;;;17.55;11.25;;;14.20;88.70;;;;;;4988584;28;20069;-84
2022/10/20 10:06:27;;;;;;;18.58;12.45;;;14.20;88.20;;;;;;5008080;28;20029;-80
2022/10/20 10:08:52;;;;;;;17.85;13.23;;;14.20;87.90;;;;;;5005738;28;20025;-76
2022/10/20 10:11:25;;;;;;;19.55;15.20;;;14.30;88.50;;;;;;5007267;28;20056;-81
2022/10/20 10:13:52;;;;;;;18.42;14.18;;;14.30;88.80;;;;;;5007346;28;20022;-78
2022/10/20 10:16:25;;;;;;;20.25;13.60;;;14.40;88.80;;;;;;5007802;28;20014;-78
2022/10/20 10:19:02;;;;;;;16.00;10.63;;;14.40;88.60;;;;;;5006560;28;20127;-76
2022/10/20 10:21:29;;;;;;;19.98;13.70;;;14.40;88.00;;;;;;4987548;28;20022;-75
2022/10/20 10:23:58;;;;;;;14.35;10.45;;;14.40;88.20;;;;;;4988830;28;20022;-76
2022/10/20 10:26:36;;;;;;;15.15;10.82;;;14.40;88.70;;;;;;4988802;28;20030;-76
2022/10/20 10:29:03;;;;;;;23.38;13.95;;;14.50;88.60;;;;;;5006699;28;20029;-76
2022/10/20 10:31:28;;;;;;;16.98;12.93;;;14.50;89.00;;;;;;5005456;28;20026;-76
2022/10/20 10:34:20;;;;;;;20.88;15.35;;;14.50;89.30;;;;;;5007343;28;20041;-77
2022/10/20 10:36:45;;;;;;;21.23;13.93;;;14.60;89.50;;;;;;5005160;28;20042;-75
2022/10/20 10:39:13;;;;;;;18.65;13.98;;;14.60;90.10;;;;;;5007149;28;20076;-77
2022/10/20 10:42:18;;;;;;;21.52;14.13;;;14.70;89.80;;;;;;5007913;28;20137;-77
2022/10/20 10:44:59;;;;;;;18.92;13.18;;;14.70;90.00;;;;;;4994025;28;20042;-76
2022/10/20 10:47:50;;;;;;;18.20;13.10;;;14.70;90.20;;;;;;4988991;28;20048;-76
2022/10/20 10:50:26;;;;;;;22.05;15.75;;;14.80;89.10;;;;;;5006736;28;20033;-78
2022/10/20 10:53:15;;;;;;;21.73;16.13;;;14.80;90.30;;;;;;5004839;28;20062;-73
2022/10/20 10:56:03;;;;;;;14.30;9.60;;;14.80;90.40;;;;;;5005388;28;21780;-74
2022/10/20 10:58:43;;;;;;;19.30;14.85;;;14.90;90.10;;;;;;4986216;28;20038;-74
2022/10/20 11:01:26;;;;;;;24.02;15.38;;;14.90;90.20;;;;;;5005680;28;20044;-74
2022/10/20 11:04:25;;;;;;;20.73;15.85;;;14.90;90.60;;;;;;5005952;28;20026;-74
2022/10/20 11:07:06;;;;;;;22.08;15.13;;;15.00;90.80;;;;;;5005668;28;20034;-74
2022/10/20 11:09:39;;;;;;;25.65;14.27;;;15.00;91.00;;;;;;5005757;28;20029;-74
2022/10/20 11:12:14;;;;;;;16.77;10.88;;;15.00;90.80;;;;;;5005844;28;20033;-74
2022/10/20 11:14:56;;;;;;;15.45;12.20;;;15.00;90.70;;;;;;5005516;28;20026;-74
2022/10/20 11:17:52;;;;;;;19.08;14.13;;;15.10;90.60;;;;;;5005432;28;20483;-74
2022/10/20 11:20:40;;;;;;;16.27;12.65;;;15.10;91.00;;;;;;5004907;28;20045;-73
2022/10/20 11:23:56;;;;;;;16.95;11.65;;;15.10;91.00;;;;;;5004589;28;20148;-74
2022/10/20 11:26:26;;;;;;;16.67;12.13;;;15.10;90.60;;;;;;4988100;28;20033;-73
2022/10/20 11:28:55;;;;;;;19.55;11.48;;;15.10;91.10;;;;;;5003456;28;20033;-74
2022/10/20 11:31:38;;;;;;;15.50;11.18;;;15.10;91.20;;;;;;4985947;28;20057;-74
2022/10/20 11:34:14;;;;;;;17.80;12.68;;;15.10;91.20;;;;;;5004348;28;20030;-74
2022/10/20 11:36:50;;;;;;;12.68;8.85;;;15.10;91.20;;;;;;5004317;28;20060;-76
2022/10/20 11:39:39;;;;;;;14.38;10.70;;;15.10;91.30;;;;;;5005291;28;20050;-74
2022/10/20 11:42:22;;;;;;;19.23;12.52;;;15.20;91.20;;;;;;5003955;28;20048;-74
2022/10/20 11:44:48;;;;;;;17.90;12.20;;;15.10;91.10;;;;;;4987199;28;20034;-74
2022/10/20 11:47:20;;;;;;;14.25;10.82;;;15.10;91.30;;;;;;5005437;28;20014;-77
2022/10/20 11:49:45;;;;;;;18.63;13.88;;;15.20;91.00;;;;;;4987719;28;20026;-76
2022/10/20 11:52:33;;;;;;;18.50;13.05;;;15.20;91.50;;;;;;4986716;28;20032;-75
2022/10/20 11:55:08;;;;;;;15.73;10.88;;;15.10;91.20;;;;;;5005120;28;20788;-75
2022/10/20 11:57:44;;;;;;;17.30;13.40;;;15.10;90.40;;;;;;5003151;28;20092;-77
2022/10/20 12:00:45;;;;;;;13.90;9.65;;;15.10;91.30;;;;;;5001987;28;20033;-79
2022/10/20 12:03:54;;;;;;;15.27;11.05;;;15.00;91.10;;;;;;4988567;28;20034;-79
2022/10/20 12:06:41;;;;;;;13.82;10.20;;;15.00;91.50;;;;;;5003951;28;20030;-79
2022/10/20 12:09:31;;;;;;;18.85;12.70;;;15.10;87.80;;;;;;5002622;28;20044;-79
2022/10/20 12:12:28;;;;;;;19.70;13.68;;;15.00;91.30;;;;;;5004214;28;20026;-78
2022/10/20 12:15:00;;;;;;;15.25;10.57;;;15.00;92.10;;;;;;4979605;28;20042;-78
2022/10/20 12:17:31;;;;;;;11.60;9.20;;;15.10;92.10;;;;;;5003939;28;20033;-77
2022/10/20 12:20:18;;;;;;;18.70;12.55;;;15.10;91.90;;;;;;5003580;28;20046;-78
2022/10/20 12:22:45;;;;;;;14.50;10.20;;;15.00;92.20;;;;;;5003301;28;20026;-78
2022/10/20 12:25:18;;;;;;;15.63;11.02;;;15.10;91.80;;;;;;5003943;28;20033;-78
2022/10/20 12:27:44;;;;;;;15.70;11.20;;;15.10;91.30;;;;;;4987966;28;20047;-78
2022/10/20 12:30:37;;;;;;;21.23;14.85;;;15.10;91.20;;;;;;4986614;28;20105;-79
2022/10/20 12:33:15;;;;;;;19.13;12.18;;;15.00;92.50;;;;;;5004505;28;20067;-79
2022/10/20 12:35:59;;;;;;;15.43;10.82;;;15.00;91.40;;;;;;5005593;28;20030;-76
2022/10/20 12:38:25;;;;;;;16.38;11.85;;;14.90;92.10;;;;;;5006052;28;20034;-77
2022/10/20 12:40:56;;;;;;;19.70;12.93;;;14.90;92.30;;;;;;5006134;28;20026;-76
2022/10/20 12:43:35;;;;;;;20.48;13.80;;;14.90;92.90;;;;;;5005606;28;20030;-77
2022/10/20 12:46:11;;;;;;;23.38;15.20;;;14.80;93.70;;;;;;5004392;28;20026;-78
2022/10/20 12:48:43;;;;;;;23.55;15.73;;;14.80;94.10;;;;;;4990281;28;20026;-77
2022/10/20 12:51:20;;;;;;;25.48;18.38;;;14.90;93.90;;;;;;4991638;28;20112;-77